createdAt,value
2023-04-29T00:04:10.852Z,1.50
2023-04-29T00:09:19.268Z,1.50
2023-04-29T00:14:27.697Z,1.40
2023-04-29T00:19:35.938Z,1.37
2023-04-29T00:24:44.494Z,1.60
2023-04-29T00:29:54.581Z,1.60
2023-04-29T00:35:04.110Z,1.60
2023-04-29T00:40:13.762Z,1.70
2023-04-29T00:45:21.778Z,1.40
2023-04-29T00:50:30.209Z,1.50
2023-04-29T00:55:42.438Z,1.40
2023-04-29T01:00:50.707Z,1.60
2023-04-29T01:06:02.488Z,1.60
2023-04-29T01:11:13.940Z,1.40
2023-04-29T01:16:25.034Z,1.33
2023-04-29T01:21:36.761Z,1.50
2023-04-29T01:26:48.454Z,1.40
2023-04-29T01:32:01.394Z,1.20
2023-04-29T01:37:15.589Z,1.40
2023-04-29T01:42:28.610Z,1.60
2023-04-29T01:47:40.248Z,1.63
2023-04-29T01:52:50.465Z,1.57
2023-04-29T01:58:01.117Z,1.70
2023-04-29T02:03:12.190Z,1.73
2023-04-29T02:08:22.637Z,1.40
2023-04-29T02:13:37.643Z,1.50
2023-04-29T02:18:49.125Z,1.50
2023-04-29T02:23:57.734Z,1.40
2023-04-29T02:29:05.741Z,1.40
2023-04-29T02:34:13.938Z,1.57
2023-04-29T02:39:22.102Z,1.60
2023-04-29T02:44:32.603Z,1.70
2023-04-29T02:49:41.259Z,1.67
2023-04-29T02:54:49.785Z,1.60
2023-04-29T02:59:59.156Z,1.80
2023-04-29T03:05:08.814Z,1.60
2023-04-29T03:10:18.845Z,1.97
2023-04-29T03:15:27.064Z,1.60
2023-04-29T03:20:34.623Z,1.60
2023-04-29T03:25:45.596Z,1.70
2023-04-29T03:30:54.021Z,1.80
2023-04-29T03:36:02.690Z,2.00
2023-04-29T03:41:12.502Z,1.90
2023-04-29T03:46:21.291Z,1.80
2023-04-29T03:51:30.898Z,1.37
2023-04-29T03:56:40.844Z,1.57
2023-04-29T04:01:49.602Z,2.00
2023-04-29T04:06:58.649Z,2.00
2023-04-29T04:12:09.703Z,2.03
2023-04-29T04:17:22.040Z,2.20
2023-04-29T04:22:32.404Z,2.10
2023-04-29T04:27:43.582Z,2.30
2023-04-29T04:32:54.617Z,2.10
2023-04-29T04:38:04.461Z,2.40
2023-04-29T04:43:13.890Z,1.87
2023-04-29T04:48:23.115Z,1.90
2023-04-29T04:53:32.286Z,2.20
2023-04-29T04:58:42.122Z,2.33
2023-04-29T05:03:53.267Z,2.00
2023-04-29T05:09:03.134Z,2.10
2023-04-29T05:14:12.389Z,1.90
2023-04-29T05:19:23.319Z,1.83
2023-04-29T05:24:32.107Z,1.80
2023-04-29T05:29:40.370Z,2.13
2023-04-29T05:34:48.704Z,5.63
2023-04-29T05:40:00.217Z,3.57
2023-04-29T05:45:09.013Z,2.20
2023-04-29T05:50:17.182Z,5.20
2023-04-29T05:55:25.777Z,3.13
2023-04-29T06:00:34.221Z,2.23
2023-04-29T06:05:48.968Z,2.30
2023-04-29T06:10:59.737Z,2.27
2023-04-29T06:16:09.728Z,1.80
2023-04-29T06:21:18.771Z,1.60
2023-04-29T06:26:27.698Z,1.63
2023-04-29T06:31:37.306Z,1.50
2023-04-29T06:36:46.214Z,1.40
2023-04-29T06:41:55.781Z,1.40
2023-04-29T06:47:05.985Z,1.60
2023-04-29T06:52:17.209Z,1.60
2023-04-29T06:57:27.546Z,1.50
2023-04-29T07:02:36.621Z,1.50
2023-04-29T07:07:44.980Z,1.60
2023-04-29T07:12:53.380Z,1.47
2023-04-29T07:18:03.331Z,1.40
2023-04-29T07:23:11.760Z,1.40
2023-04-29T07:28:22.494Z,1.40
2023-04-29T07:33:32.753Z,1.67
2023-04-29T07:38:42.474Z,1.40
2023-04-29T07:43:51.259Z,1.70
2023-04-29T07:48:59.800Z,1.57
2023-04-29T07:54:09.434Z,1.70
2023-04-29T07:59:19.083Z,1.60
2023-04-29T08:04:27.872Z,1.73
2023-04-29T08:09:38.472Z,1.40
2023-04-29T08:14:47.537Z,1.70
2023-04-29T08:19:58.512Z,1.30
2023-04-29T08:25:08.139Z,1.40
2023-04-29T08:30:17.968Z,1.17
2023-04-29T08:35:27.445Z,1.23
2023-04-29T08:40:37.827Z,1.30
2023-04-29T08:45:46.955Z,1.30
2023-04-29T08:50:55.696Z,1.30
2023-04-29T08:56:06.878Z,1.40
2023-04-29T09:01:16.637Z,1.30
2023-04-29T09:06:24.899Z,1.30
2023-04-29T09:11:34.244Z,1.00
2023-04-29T09:16:43.000Z,1.00
2023-04-29T09:21:54.530Z,1.00
2023-04-29T09:27:04.510Z,1.10
2023-04-29T09:32:15.941Z,1.10
2023-04-29T09:37:27.227Z,1.10
2023-04-29T09:42:38.423Z,1.20
2023-04-29T09:47:46.743Z,1.20
2023-04-29T09:52:55.336Z,1.20
2023-04-29T09:58:08.898Z,1.13
2023-04-29T10:03:17.705Z,1.30
2023-04-29T10:08:27.149Z,1.40
2023-04-29T10:13:40.901Z,1.60
2023-04-29T10:18:52.728Z,1.80
2023-04-29T10:24:03.301Z,2.43
2023-04-29T10:29:16.718Z,2.40
2023-04-29T10:34:26.526Z,2.40
2023-04-29T10:39:37.945Z,2.80
2023-04-29T10:44:49.634Z,3.20
2023-04-29T10:50:00.995Z,3.20
2023-04-29T10:55:10.040Z,3.17
2023-04-29T11:00:20.853Z,3.27
2023-04-29T11:05:32.519Z,4.30
2023-04-29T11:10:43.195Z,3.83
2023-04-29T11:15:54.442Z,4.17
2023-04-29T11:21:05.186Z,4.63
2023-04-29T11:26:12.993Z,4.20
2023-04-29T11:31:22.453Z,4.53
2023-04-29T11:36:30.297Z,4.23
2023-04-29T11:41:40.181Z,3.33
2023-04-29T11:46:48.994Z,3.87
2023-04-29T11:51:56.922Z,3.67
2023-04-29T11:57:06.285Z,3.40
2023-04-29T12:02:17.036Z,3.60
2023-04-29T12:07:25.925Z,3.50
2023-04-29T12:12:37.354Z,3.20
2023-04-29T12:17:47.580Z,3.00
2023-04-29T12:22:57.166Z,2.60
2023-04-29T12:28:08.342Z,2.40
2023-04-29T12:33:18.238Z,2.50
2023-04-29T12:38:30.629Z,2.77
2023-04-29T12:43:39.443Z,2.70
2023-04-29T12:48:48.856Z,2.40
2023-04-29T12:53:57.517Z,2.30
2023-04-29T12:59:08.337Z,2.10
2023-04-29T13:04:19.068Z,2.30
2023-04-29T13:09:28.353Z,1.80
2023-04-29T13:14:37.650Z,2.10
2023-04-29T13:19:51.693Z,1.70
2023-04-29T13:24:56.010Z,1.80
2023-04-29T13:30:05.075Z,1.60
2023-04-29T13:35:14.167Z,1.60
2023-04-29T13:40:28.046Z,2.23
2023-04-29T13:45:39.759Z,2.10
2023-04-29T14:01:26.113Z,2.53
2023-04-29T14:06:17.455Z,2.33
2023-04-29T14:11:29.162Z,2.20
2023-04-29T14:16:38.615Z,1.83
2023-04-29T14:21:47.258Z,1.80
2023-04-29T14:26:55.170Z,1.70
2023-04-29T14:32:02.758Z,1.87
2023-04-29T14:37:13.045Z,1.97
2023-04-29T14:42:22.227Z,1.80
2023-04-29T14:47:30.568Z,1.60
2023-04-29T14:52:39.026Z,1.97
2023-04-29T14:57:47.480Z,1.80
2023-04-29T15:02:59.188Z,1.87
2023-04-29T15:08:08.895Z,1.97
2023-04-29T15:13:18.441Z,2.00
2023-04-29T15:18:27.388Z,2.03
2023-04-29T15:23:36.021Z,2.50
2023-04-29T15:28:46.653Z,2.57
2023-04-29T15:33:56.522Z,2.50
2023-04-29T15:39:08.745Z,2.80
2023-04-29T15:44:18.259Z,2.60
2023-04-29T15:49:29.013Z,2.70
2023-04-29T15:54:38.518Z,2.50
2023-04-29T15:59:47.959Z,2.43
2023-04-29T16:04:57.669Z,2.50
2023-04-29T16:10:06.588Z,2.03
2023-04-29T16:15:15.492Z,1.80
2023-04-29T16:20:24.263Z,1.60
2023-04-29T16:25:35.016Z,1.50
2023-04-29T16:30:44.989Z,1.53
2023-04-29T16:35:56.863Z,1.50
2023-04-29T16:41:09.515Z,1.90
2023-04-29T16:46:19.487Z,1.90
2023-04-29T16:51:32.699Z,1.60
2023-04-29T16:56:42.595Z,1.50
2023-04-29T17:01:51.727Z,1.90
2023-04-29T17:07:02.461Z,1.60
2023-04-29T17:12:11.510Z,1.73
2023-04-29T17:17:21.036Z,1.90
2023-04-29T17:22:29.305Z,1.97
2023-04-29T17:27:37.885Z,2.40
2023-04-29T17:32:50.317Z,1.70
2023-04-29T17:37:59.665Z,1.53
2023-04-29T17:43:08.069Z,1.70
2023-04-29T17:48:18.841Z,1.70
2023-04-29T17:53:27.845Z,1.60
2023-04-29T17:58:36.264Z,1.60
2023-04-29T18:03:46.887Z,1.60
2023-04-29T18:08:55.309Z,1.63
2023-04-29T18:14:09.793Z,1.90
2023-04-29T18:19:19.030Z,1.60
2023-04-29T18:24:30.337Z,1.80
2023-04-29T18:29:39.338Z,1.70
2023-04-29T18:34:48.090Z,1.73
2023-04-29T18:39:56.503Z,1.83
2023-04-29T18:45:04.638Z,1.70
2023-04-29T18:50:13.385Z,1.77
2023-04-29T18:55:22.681Z,1.70
2023-04-29T19:00:31.735Z,1.30
2023-04-29T19:05:41.708Z,1.30
2023-04-29T19:10:50.119Z,1.57
2023-04-29T19:15:58.714Z,1.60
2023-04-29T19:21:08.152Z,1.50
2023-04-29T19:26:17.570Z,1.70
2023-04-29T19:31:26.145Z,2.60
2023-04-29T19:36:35.191Z,3.40
2023-04-29T19:41:43.383Z,3.83
2023-04-29T19:46:54.379Z,3.07
2023-04-29T19:52:02.716Z,2.50
2023-04-29T19:57:11.554Z,3.40
2023-04-29T20:02:21.958Z,3.13
2023-04-29T20:07:31.255Z,3.03
2023-04-29T20:12:41.715Z,3.33
2023-04-29T20:17:51.301Z,3.20
2023-04-29T20:23:01.245Z,3.70
2023-04-29T20:28:10.667Z,3.60
2023-04-29T20:33:19.662Z,3.83
2023-04-29T20:38:28.289Z,2.30
2023-04-29T20:43:37.516Z,2.20
2023-04-29T20:48:48.389Z,2.80
2023-04-29T20:53:57.081Z,2.50
2023-04-29T20:59:05.797Z,2.30
2023-04-29T21:04:15.081Z,2.30
2023-04-29T21:09:23.595Z,2.77
2023-04-29T21:14:32.024Z,3.60
2023-04-29T21:19:40.940Z,3.77
2023-04-29T21:24:50.244Z,3.30
2023-04-29T21:29:59.237Z,2.50
2023-04-29T21:35:08.702Z,2.90
2023-04-29T21:40:17.816Z,5.57
2023-04-29T21:45:26.800Z,3.30
2023-04-29T21:50:35.931Z,3.50
2023-04-29T21:55:45.471Z,3.27
2023-04-29T22:00:56.223Z,3.73
2023-04-29T22:06:10.190Z,2.97
2023-04-29T22:11:21.368Z,2.80
2023-04-29T22:16:32.234Z,2.90
2023-04-29T22:21:42.409Z,3.40
2023-04-29T22:26:51.558Z,3.57
2023-04-29T22:31:59.390Z,2.80
2023-04-29T22:37:08.335Z,2.97
2023-04-29T22:42:17.959Z,3.00
2023-04-29T22:47:28.056Z,2.97
2023-04-29T22:52:36.395Z,2.87
2023-04-29T22:57:44.119Z,3.27
2023-04-29T23:02:53.677Z,3.30
2023-04-29T23:08:04.269Z,6.00
2023-04-29T23:13:13.607Z,4.10
2023-04-29T23:18:23.569Z,3.03
2023-04-29T23:23:32.113Z,3.37
2023-04-29T23:28:41.491Z,4.10
2023-04-29T23:33:49.958Z,3.93
2023-04-29T23:38:58.219Z,3.60
2023-04-29T23:44:07.078Z,2.20
2023-04-29T23:49:16.226Z,3.37
2023-04-29T23:54:24.312Z,2.83
2023-04-29T23:59:32.630Z,2.73
